createdAt,value
2022-12-01T00:00:17.954Z,51.325783
2022-12-01T00:01:17.932Z,51.325756
2022-12-01T00:02:18.089Z,51.325741
2022-12-01T00:03:18.071Z,51.325756
2022-12-01T00:04:17.892Z,51.325691
2022-12-01T00:05:17.862Z,51.325787
2022-12-01T00:06:17.847Z,51.325775
2022-12-01T00:07:17.849Z,51.325821
2022-12-01T00:08:18.820Z,51.325794
2022-12-01T00:09:19.995Z,51.325748
2022-12-01T00:10:18.782Z,51.325748
2022-12-01T00:11:17.768Z,51.325794
2022-12-01T00:12:17.781Z,51.325840
2022-12-01T00:13:17.726Z,51.325729
2022-12-01T00:14:17.707Z,51.325718
2022-12-01T00:15:17.688Z,51.325726
2022-12-01T00:16:17.711Z,51.325741
2022-12-01T00:17:17.703Z,51.325733
2022-12-01T00:18:17.637Z,51.325729
2022-12-01T00:19:17.623Z,51.325779
2022-12-01T00:20:17.615Z,51.325771
2022-12-01T00:21:17.591Z,51.325768
2022-12-01T00:22:17.625Z,51.325748
2022-12-01T00:23:17.562Z,51.325748
2022-12-01T00:24:17.548Z,51.325768
2022-12-01T00:25:17.530Z,51.325764
2022-12-01T00:26:17.525Z,51.325779
2022-12-01T00:27:17.525Z,51.325771
2022-12-01T00:28:17.480Z,51.325768
2022-12-01T00:29:17.477Z,51.325752
2022-12-01T00:30:17.437Z,51.325760
2022-12-01T00:31:17.521Z,51.325752
2022-12-01T00:32:17.559Z,51.325718
2022-12-01T00:33:17.411Z,51.325726
2022-12-01T00:34:17.381Z,51.325695
2022-12-01T00:35:17.368Z,51.325741
2022-12-01T00:36:17.339Z,51.325764
2022-12-01T00:37:17.358Z,51.325748
2022-12-01T00:38:17.309Z,51.325756
2022-12-01T00:39:17.297Z,51.325726
2022-12-01T00:40:17.270Z,51.325829
2022-12-01T00:41:17.281Z,51.325848
2022-12-01T00:42:17.271Z,51.325771
2022-12-01T00:43:17.222Z,51.325764
2022-12-01T00:44:17.224Z,51.325775
2022-12-01T00:45:17.197Z,51.325790
2022-12-01T00:46:17.211Z,51.325718
2022-12-01T00:47:17.200Z,51.325726
2022-12-01T00:48:17.146Z,51.325733
2022-12-01T00:49:17.127Z,51.325699
2022-12-01T00:50:17.105Z,51.325726
2022-12-01T00:51:17.101Z,51.325737
2022-12-01T00:52:17.101Z,51.325691
2022-12-01T00:53:17.056Z,51.325695
2022-12-01T00:54:17.041Z,51.325714
2022-12-01T00:55:17.035Z,51.325684
2022-12-01T00:56:17.005Z,51.325756
2022-12-01T00:57:17.029Z,51.325764
2022-12-01T00:58:17.071Z,51.325737
2022-12-01T00:59:16.963Z,51.325775
2022-12-01T01:00:16.938Z,51.325760
2022-12-01T01:01:16.962Z,51.325768
2022-12-01T01:02:16.976Z,51.325672
2022-12-01T01:03:16.892Z,51.325768
2022-12-01T01:04:16.890Z,51.325752
2022-12-01T01:05:16.855Z,51.325756
2022-12-01T01:06:16.845Z,51.325729
2022-12-01T01:07:16.868Z,51.325798
2022-12-01T01:08:16.812Z,51.325813
2022-12-01T01:09:16.791Z,51.325829
2022-12-01T01:10:16.787Z,51.325684
2022-12-01T01:11:16.753Z,51.325756
2022-12-01T01:12:16.764Z,51.325771
2022-12-01T01:13:16.725Z,51.325737
2022-12-01T01:14:16.715Z,51.325733
2022-12-01T01:15:16.684Z,51.325756
2022-12-01T01:16:16.689Z,51.325756
2022-12-01T01:17:16.688Z,51.325768
2022-12-01T01:18:16.635Z,51.325802
2022-12-01T01:19:16.644Z,51.325771
2022-12-01T01:20:16.600Z,51.325783
2022-12-01T01:21:16.582Z,51.325825
2022-12-01T01:22:16.614Z,51.325794
2022-12-01T01:23:16.559Z,51.325752
2022-12-01T01:24:16.535Z,51.325764
2022-12-01T01:25:16.529Z,51.325718
2022-12-01T01:26:16.510Z,51.325703
2022-12-01T01:27:16.520Z,51.325790
2022-12-01T01:28:16.465Z,51.325794
2022-12-01T01:29:16.458Z,51.325802
2022-12-01T01:30:16.454Z,51.325802
2022-12-01T01:31:16.480Z,51.325665
2022-12-01T01:32:16.440Z,51.325787
2022-12-01T01:33:16.397Z,51.325745
2022-12-01T01:34:16.465Z,51.325745
2022-12-01T01:35:16.347Z,51.325745
2022-12-01T01:36:16.354Z,51.325806
2022-12-01T01:37:16.367Z,51.325771
2022-12-01T01:38:16.314Z,51.325756
2022-12-01T01:39:16.284Z,51.325771
2022-12-01T01:40:16.276Z,51.325821
2022-12-01T01:41:16.262Z,51.325794
2022-12-01T01:42:16.289Z,51.325764
2022-12-01T01:43:16.244Z,51.325741
2022-12-01T01:44:16.209Z,51.325760
2022-12-01T01:45:17.177Z,51.325737
2022-12-01T01:46:16.294Z,51.325775
2022-12-01T01:47:16.176Z,51.325787
2022-12-01T01:48:16.125Z,51.325760
2022-12-01T01:49:16.122Z,51.325756
2022-12-01T01:50:16.112Z,51.325764
2022-12-01T01:51:16.069Z,51.325771
2022-12-01T01:52:16.099Z,51.325726
2022-12-01T01:53:16.055Z,51.325752
2022-12-01T01:54:16.043Z,51.325809
2022-12-01T01:55:16.032Z,51.325817
2022-12-01T01:56:15.993Z,51.325813
2022-12-01T01:57:16.013Z,51.325775
2022-12-01T01:58:16.036Z,51.325779
2022-12-01T01:59:15.946Z,51.325817
2022-12-01T02:00:15.928Z,51.325813
2022-12-01T02:01:16.000Z,51.325798
2022-12-01T02:02:15.988Z,51.325768
2022-12-01T02:03:16.870Z,51.325802
2022-12-01T02:04:15.851Z,51.325813
2022-12-01T02:05:15.882Z,51.325821
2022-12-01T02:06:15.828Z,51.325787
2022-12-01T02:07:15.846Z,51.325699
2022-12-01T02:08:15.802Z,51.325726
2022-12-01T02:09:15.774Z,51.325756
2022-12-01T02:10:15.767Z,51.325809
2022-12-01T02:11:15.739Z,51.325798
2022-12-01T02:12:15.763Z,51.325779
2022-12-01T02:13:15.703Z,51.325794
2022-12-01T02:14:15.690Z,51.325718
2022-12-01T02:15:15.671Z,51.325752
2022-12-01T02:16:15.707Z,51.325768
2022-12-01T02:17:15.671Z,51.325756
2022-12-01T02:18:15.619Z,51.325737
2022-12-01T02:19:15.598Z,51.325821
2022-12-01T02:20:15.581Z,51.325790
2022-12-01T02:21:15.572Z,51.325768
2022-12-01T02:22:15.695Z,51.325722
2022-12-01T02:23:15.531Z,51.325764
2022-12-01T02:24:15.512Z,51.325775
2022-12-01T02:25:15.536Z,51.325775
2022-12-01T02:26:15.482Z,51.325768
2022-12-01T02:27:15.470Z,51.325756
2022-12-01T02:28:15.479Z,51.325771
2022-12-01T02:29:15.440Z,51.325821
2022-12-01T02:30:15.439Z,51.325794
2022-12-01T02:31:15.467Z,51.325779
2022-12-01T02:32:15.381Z,51.325729
2022-12-01T02:33:15.391Z,51.325748
2022-12-01T02:34:15.348Z,51.325752
2022-12-01T02:35:15.336Z,51.325748
2022-12-01T02:36:15.327Z,51.325756
2022-12-01T02:37:15.293Z,51.325752
2022-12-01T02:38:15.314Z,51.325779
2022-12-01T02:39:15.271Z,51.325745
2022-12-01T02:40:15.253Z,51.325745
2022-12-01T02:41:15.232Z,51.325768
2022-12-01T02:42:15.219Z,51.325752
2022-12-01T02:43:15.231Z,51.325756
2022-12-01T02:44:15.181Z,51.325748
2022-12-01T02:45:15.155Z,51.325726
2022-12-01T02:46:15.205Z,51.325714
2022-12-01T02:47:15.124Z,51.325722
2022-12-01T02:48:15.147Z,51.325718
2022-12-01T02:49:15.085Z,51.325733
2022-12-01T02:50:15.069Z,51.325741
2022-12-01T02:51:15.078Z,51.325760
2022-12-01T02:52:15.038Z,51.325756
2022-12-01T02:53:15.053Z,51.325775
2022-12-01T02:54:15.011Z,51.325748
2022-12-01T02:55:14.996Z,51.325748
2022-12-01T02:56:14.980Z,51.325741
2022-12-01T02:57:14.967Z,51.325748
2022-12-01T02:58:14.979Z,51.325706
2022-12-01T02:59:14.937Z,51.325741
2022-12-01T03:00:14.907Z,51.325779
2022-12-01T03:01:14.983Z,51.325836
2022-12-01T03:02:14.923Z,51.325809
2022-12-01T03:03:14.891Z,51.325779
2022-12-01T03:04:14.835Z,51.325760
2022-12-01T03:05:14.822Z,51.325760
2022-12-01T03:06:14.824Z,51.325768
2022-12-01T03:07:14.786Z,51.325775
2022-12-01T03:08:14.806Z,51.325813
2022-12-01T03:09:14.788Z,51.325798
2022-12-01T03:10:14.738Z,51.325787
2022-12-01T03:11:14.713Z,51.325760
2022-12-01T03:12:14.706Z,51.325714
2022-12-01T03:13:14.713Z,51.325764
2022-12-01T03:14:14.669Z,51.325779
2022-12-01T03:15:14.653Z,51.325768
2022-12-01T03:16:14.676Z,51.325771
2022-12-01T03:17:14.616Z,51.325752
2022-12-01T03:18:14.633Z,51.325741
2022-12-01T03:19:14.577Z,51.325706
2022-12-01T03:20:14.566Z,51.325809
2022-12-01T03:21:14.541Z,51.325798
2022-12-01T03:22:14.526Z,51.325691
2022-12-01T03:23:14.539Z,51.325710
2022-12-01T03:24:14.491Z,51.325790
2022-12-01T03:25:14.473Z,51.325764
2022-12-01T03:26:14.454Z,51.325737
2022-12-01T03:27:14.443Z,51.325794
2022-12-01T03:28:21.040Z,51.325806
2022-12-01T03:29:16.417Z,51.325756
2022-12-01T03:30:14.392Z,51.325737
2022-12-01T03:31:14.420Z,51.325741
2022-12-01T03:32:14.373Z,51.325710
2022-12-01T03:33:14.366Z,51.325737
2022-12-01T03:34:14.320Z,51.325779
2022-12-01T03:35:14.302Z,51.325695
2022-12-01T03:36:14.305Z,51.325722
2022-12-01T03:37:14.289Z,51.325706
2022-12-01T03:38:14.277Z,51.325737
2022-12-01T03:39:14.233Z,51.325729
2022-12-01T03:40:14.231Z,51.325706
2022-12-01T03:41:14.203Z,51.325645
2022-12-01T03:42:14.193Z,51.325665
2022-12-01T03:43:14.230Z,51.325676
2022-12-01T03:44:14.158Z,51.325642
2022-12-01T03:45:14.148Z,51.325703
2022-12-01T03:46:14.164Z,51.325714
2022-12-01T03:47:14.097Z,51.325714
2022-12-01T03:48:14.113Z,51.325676
2022-12-01T03:49:14.060Z,51.325653
2022-12-01T03:50:14.106Z,51.325691
2022-12-01T03:51:14.033Z,51.325706
2022-12-01T03:52:14.013Z,51.325706
2022-12-01T03:53:14.019Z,51.325726
2022-12-01T03:54:13.972Z,51.325714
2022-12-01T03:55:13.951Z,51.325710
2022-12-01T03:56:13.934Z,51.325706
2022-12-01T03:57:13.934Z,51.325714
2022-12-01T03:58:13.943Z,51.325695
2022-12-01T03:59:13.893Z,51.325737
2022-12-01T04:00:13.871Z,51.325729
2022-12-01T04:01:13.863Z,51.325737
2022-12-01T04:02:13.932Z,51.325722
2022-12-01T04:03:13.893Z,51.325722
2022-12-01T04:04:13.805Z,51.325722
2022-12-01T04:05:13.788Z,51.325726
2022-12-01T04:06:13.771Z,51.325741
2022-12-01T04:07:14.753Z,51.325722
2022-12-01T04:08:13.773Z,51.325722
2022-12-01T04:09:13.723Z,51.325706
2022-12-01T04:10:13.699Z,51.325695
2022-12-01T04:11:13.684Z,51.325706
2022-12-01T04:12:13.661Z,51.325737
2022-12-01T04:13:13.687Z,51.325756
2022-12-01T04:14:13.630Z,51.325695
2022-12-01T04:15:13.671Z,51.325798
2022-12-01T04:16:13.637Z,51.325748
2022-12-01T04:17:13.583Z,51.325752
2022-12-01T04:18:13.592Z,51.325745
2022-12-01T04:19:13.545Z,51.325684
2022-12-01T04:20:13.527Z,51.325687
2022-12-01T04:21:13.519Z,51.325794
2022-12-01T04:22:13.504Z,51.325737
2022-12-01T04:23:13.509Z,51.325760
2022-12-01T04:24:13.473Z,51.325745
2022-12-01T04:25:13.453Z,51.325737
2022-12-01T04:26:15.894Z,51.325745
2022-12-01T04:27:14.420Z,51.325741
2022-12-01T04:28:13.443Z,51.325745
2022-12-01T04:29:13.394Z,51.325768
2022-12-01T04:30:13.370Z,51.325737
2022-12-01T04:31:13.437Z,51.325760
2022-12-01T04:32:13.345Z,51.325760
2022-12-01T04:33:13.358Z,51.325737
2022-12-01T04:34:13.288Z,51.325787
2022-12-01T04:35:13.285Z,51.325764
2022-12-01T04:36:13.272Z,51.325760
2022-12-01T04:37:13.248Z,51.325752
2022-12-01T04:38:13.264Z,51.325733
2022-12-01T04:39:13.213Z,51.325745
2022-12-01T04:40:13.202Z,51.325691
2022-12-01T04:41:13.181Z,51.325733
2022-12-01T04:42:13.164Z,51.325764
2022-12-01T04:43:13.142Z,51.325787
2022-12-01T04:44:13.155Z,51.325722
2022-12-01T04:45:13.111Z,51.325741
2022-12-01T04:46:13.151Z,51.325741
2022-12-01T04:47:13.065Z,51.325718
2022-12-01T04:48:13.057Z,51.325756
2022-12-01T04:49:13.067Z,51.325706
2022-12-01T04:50:13.065Z,51.325695
2022-12-01T04:51:13.006Z,51.325775
2022-12-01T04:52:12.977Z,51.325764
2022-12-01T04:53:12.966Z,51.325794
2022-12-01T04:54:12.977Z,51.325752
2022-12-01T04:55:12.933Z,51.325764
2022-12-01T04:56:12.907Z,51.325775
2022-12-01T04:57:12.888Z,51.325687
2022-12-01T04:58:13.876Z,51.325714
2022-12-01T04:59:12.897Z,51.325775
2022-12-01T05:00:12.846Z,51.325748
2022-12-01T05:01:12.917Z,51.325768
2022-12-01T05:02:12.867Z,51.325760
2022-12-01T05:03:15.173Z,51.325745
2022-12-01T05:04:13.812Z,51.325706
2022-12-01T05:05:12.764Z,51.325748
2022-12-01T05:06:12.745Z,51.325737
2022-12-01T05:07:12.722Z,51.325798
2022-12-01T05:08:12.707Z,51.325745
2022-12-01T05:09:16.865Z,51.325764
2022-12-01T05:10:13.684Z,51.325722
2022-12-01T05:11:12.658Z,51.325672
2022-12-01T05:12:12.656Z,51.325706
2022-12-01T05:13:12.627Z,51.325741
2022-12-01T05:14:12.653Z,51.325714
2022-12-01T05:15:12.605Z,51.325756
2022-12-01T05:16:12.643Z,51.325733
2022-12-01T05:17:12.566Z,51.325760
2022-12-01T05:18:12.594Z,51.325733
2022-12-01T05:19:12.985Z,51.325748
2022-12-01T05:20:12.518Z,51.325748
2022-12-01T05:21:12.487Z,51.325760
2022-12-01T05:22:12.478Z,51.325771
2022-12-01T05:23:16.762Z,51.325756
2022-12-01T05:24:13.495Z,51.325729
2022-12-01T05:25:12.433Z,51.325722
2022-12-01T05:26:12.398Z,51.325729
2022-12-01T05:27:12.400Z,51.325729
2022-12-01T05:28:12.373Z,51.325729
2022-12-01T05:29:12.499Z,51.325695
2022-12-01T05:30:12.336Z,51.325695
2022-12-01T05:31:12.387Z,51.325729
2022-12-01T05:32:12.300Z,51.325737
2022-12-01T05:33:12.289Z,51.325726
2022-12-01T05:34:12.300Z,51.325710
2022-12-01T05:35:12.248Z,51.325714
2022-12-01T05:36:12.239Z,51.325722
2022-12-01T05:37:12.218Z,51.325729
2022-12-01T05:38:12.196Z,51.325737
2022-12-01T05:39:12.328Z,51.325726
2022-12-01T05:40:12.166Z,51.325718
2022-12-01T05:41:12.154Z,51.325699
2022-12-01T05:42:12.139Z,51.325745
2022-12-01T05:43:12.110Z,51.325733
2022-12-01T05:44:12.129Z,51.325718
2022-12-01T05:45:12.086Z,51.325718
2022-12-01T05:46:12.131Z,51.325745
2022-12-01T05:47:12.046Z,51.325836
2022-12-01T05:48:12.030Z,51.325890
2022-12-01T05:49:12.041Z,51.325775
2022-12-01T05:50:12.001Z,51.325802
2022-12-01T05:51:12.019Z,51.325764
2022-12-01T05:52:11.964Z,51.325687
2022-12-01T05:53:11.946Z,51.325722
2022-12-01T05:54:11.975Z,51.325714
2022-12-01T05:55:11.931Z,51.325764
2022-12-01T05:56:11.899Z,51.325764
2022-12-01T05:57:11.882Z,51.325768
2022-12-01T05:58:11.855Z,51.325729
2022-12-01T05:59:11.870Z,51.325699
2022-12-01T06:00:11.827Z,51.325718
2022-12-01T06:01:11.818Z,51.325741
2022-12-01T06:02:11.863Z,51.325787
2022-12-01T06:03:11.781Z,51.325764
2022-12-01T06:04:11.853Z,51.325745
2022-12-01T06:05:11.750Z,51.325733
2022-12-01T06:06:11.735Z,51.325745
2022-12-01T06:07:11.715Z,51.325722
2022-12-01T06:08:11.687Z,51.325745
2022-12-01T06:09:11.712Z,51.325733
2022-12-01T06:10:11.656Z,51.325729
2022-12-01T06:11:11.638Z,51.325771
2022-12-01T06:12:11.633Z,51.325794
2022-12-01T06:13:11.604Z,51.325748
2022-12-01T06:14:11.609Z,51.325760
2022-12-01T06:15:11.567Z,51.325764
2022-12-01T06:16:11.569Z,51.325737
2022-12-01T06:17:11.533Z,51.325756
2022-12-01T06:18:11.522Z,51.325783
2022-12-01T06:19:11.547Z,51.325760
2022-12-01T06:20:11.485Z,51.325752
2022-12-01T06:21:11.522Z,51.325748
2022-12-01T06:22:11.475Z,51.325745
2022-12-01T06:23:11.429Z,51.325764
2022-12-01T06:24:11.466Z,51.325733
2022-12-01T06:25:11.426Z,51.325779
2022-12-01T06:26:11.374Z,51.325790
2022-12-01T06:27:11.360Z,51.325756
2022-12-01T06:28:11.347Z,51.325760
2022-12-01T06:29:11.361Z,51.325783
2022-12-01T06:30:11.314Z,51.325760
2022-12-01T06:31:11.304Z,51.325760
2022-12-01T06:32:11.314Z,51.325745
2022-12-01T06:33:11.267Z,51.325741
2022-12-01T06:34:11.313Z,51.325829
2022-12-01T06:35:11.220Z,51.325768
2022-12-01T06:36:11.202Z,51.325832
2022-12-01T06:37:11.199Z,51.325821
2022-12-01T06:38:11.172Z,51.325817
2022-12-01T06:39:11.207Z,51.325752
2022-12-01T06:40:11.129Z,51.325756
2022-12-01T06:41:11.120Z,51.325752
2022-12-01T06:42:11.103Z,51.325733
2022-12-01T06:43:11.107Z,51.325706
2022-12-01T06:44:11.314Z,51.325729
2022-12-01T06:45:11.052Z,51.325745
2022-12-01T06:46:11.063Z,51.325760
2022-12-01T06:47:11.011Z,51.325756
2022-12-01T06:48:11.008Z,51.325748
2022-12-01T06:49:11.020Z,51.325771
2022-12-01T06:50:10.953Z,51.325710
2022-12-01T06:51:11.168Z,51.325752
2022-12-01T06:52:11.940Z,51.325790
2022-12-01T06:53:10.912Z,51.325790
2022-12-01T06:54:10.921Z,51.325821
2022-12-01T06:55:10.897Z,51.325764
2022-12-01T06:56:10.859Z,51.325775
2022-12-01T06:57:10.848Z,51.325737
2022-12-01T06:58:10.831Z,51.325691
2022-12-01T06:59:10.840Z,51.325844
2022-12-01T07:00:10.794Z,51.325779
2022-12-01T07:01:10.842Z,51.325787
2022-12-01T07:02:10.842Z,51.325844
2022-12-01T07:03:10.737Z,51.325760
2022-12-01T07:04:10.765Z,51.325745
2022-12-01T07:05:10.720Z,51.325741
2022-12-01T07:06:10.740Z,51.325798
2022-12-01T07:07:10.682Z,51.325737
2022-12-01T07:08:10.710Z,51.325718
2022-12-01T07:09:10.674Z,51.325737
2022-12-01T07:10:10.624Z,51.325764
2022-12-01T07:11:10.612Z,51.325729
2022-12-01T07:12:10.614Z,51.325764
2022-12-01T07:13:10.566Z,51.325760
2022-12-01T07:14:10.594Z,51.325722
2022-12-01T07:15:10.542Z,51.325775
2022-12-01T07:16:10.579Z,51.325855
2022-12-01T07:17:10.566Z,51.325924
2022-12-01T07:18:10.493Z,51.325779
2022-12-01T07:19:10.506Z,51.325790
2022-12-01T07:20:10.447Z,51.325768
2022-12-01T07:21:10.440Z,51.325714
2022-12-01T07:22:10.421Z,51.325672
2022-12-01T07:23:10.402Z,51.325737
2022-12-01T07:24:10.416Z,51.325726
2022-12-01T07:25:10.363Z,51.325718
2022-12-01T07:26:10.350Z,51.325733
2022-12-01T07:27:10.332Z,51.325779
2022-12-01T07:28:10.317Z,51.325752
2022-12-01T07:29:10.329Z,51.325722
2022-12-01T07:30:10.280Z,51.325726
2022-12-01T07:31:10.341Z,51.325703
2022-12-01T07:32:10.248Z,51.325722
2022-12-01T07:33:10.239Z,51.325737
2022-12-01T07:34:10.250Z,51.325760
2022-12-01T07:35:10.210Z,51.325733
2022-12-01T07:36:10.180Z,51.325733
2022-12-01T07:37:10.181Z,51.325737
2022-12-01T07:38:10.146Z,51.325733
2022-12-01T07:39:10.164Z,51.325760
2022-12-01T07:40:10.113Z,51.325741
2022-12-01T07:41:10.108Z,51.325745
2022-12-01T07:42:10.093Z,51.325729
2022-12-01T07:43:10.071Z,51.325752
2022-12-01T07:44:10.079Z,51.325752
2022-12-01T07:45:10.035Z,51.325768
2022-12-01T07:46:10.109Z,51.325733
2022-12-01T07:47:09.987Z,51.325771
2022-12-01T07:48:09.991Z,51.325737
2022-12-01T07:49:09.995Z,51.325768
2022-12-01T07:50:09.953Z,51.325733
2022-12-01T07:51:09.922Z,51.325775
2022-12-01T07:52:10.015Z,51.325748
2022-12-01T07:53:09.886Z,51.325748
2022-12-01T07:54:09.933Z,51.325733
2022-12-01T07:55:09.854Z,51.325718
2022-12-01T07:56:09.844Z,51.325771
2022-12-01T07:57:09.823Z,51.325703
2022-12-01T07:58:09.803Z,51.325699
2022-12-01T07:59:10.834Z,51.325741
2022-12-01T08:00:09.772Z,51.325703
2022-12-01T08:01:09.811Z,51.325657
2022-12-01T08:02:09.831Z,51.325680
2022-12-01T08:03:09.766Z,51.325733
2022-12-01T08:04:09.737Z,51.325806
2022-12-01T08:05:09.696Z,51.325745
2022-12-01T08:06:09.678Z,51.325722
2022-12-01T08:07:09.658Z,51.325756
2022-12-01T08:08:09.694Z,51.325733
2022-12-01T08:09:09.623Z,51.325737
2022-12-01T08:10:09.634Z,51.325748
2022-12-01T08:11:09.586Z,51.325710
2022-12-01T08:12:09.568Z,51.325745
2022-12-01T08:13:12.892Z,51.325726
2022-12-01T08:14:11.580Z,51.325752
2022-12-01T08:15:09.532Z,51.325665
2022-12-01T08:16:09.644Z,51.325722
2022-12-01T08:17:09.479Z,51.325844
2022-12-01T08:18:09.475Z,51.325756
2022-12-01T08:19:09.454Z,51.325825
2022-12-01T08:20:09.465Z,51.325871
2022-12-01T08:21:09.422Z,51.325729
2022-12-01T08:22:09.412Z,51.325710
2022-12-01T08:23:09.385Z,51.325703
2022-12-01T08:24:09.366Z,51.325703
2022-12-01T08:25:09.400Z,51.325569
2022-12-01T08:26:09.340Z,51.325569
2022-12-01T08:27:09.323Z,51.325726
2022-12-01T08:28:09.297Z,51.325886
2022-12-01T08:29:09.275Z,51.325783
2022-12-01T08:30:09.284Z,51.325790
2022-12-01T08:31:09.335Z,51.325821
2022-12-01T08:32:09.223Z,51.325783
2022-12-01T08:33:09.204Z,51.325737
2022-12-01T08:34:09.190Z,51.325752
2022-12-01T08:35:09.204Z,51.325748
2022-12-01T08:36:09.161Z,51.325741
2022-12-01T08:37:09.145Z,51.325783
2022-12-01T08:38:09.131Z,51.325779
2022-12-01T08:39:09.111Z,51.325779
2022-12-01T08:40:09.125Z,51.325718
2022-12-01T08:41:09.078Z,51.325764
2022-12-01T08:42:09.054Z,51.325695
2022-12-01T08:43:12.327Z,51.325722
2022-12-01T08:44:10.046Z,51.325729
2022-12-01T08:45:09.038Z,51.325745
2022-12-01T08:46:09.048Z,51.325806
2022-12-01T08:47:10.173Z,51.325806
2022-12-01T08:48:08.959Z,51.325768
2022-12-01T08:49:08.951Z,51.325741
2022-12-01T08:50:08.947Z,51.325695
2022-12-01T08:51:08.907Z,51.325710
2022-12-01T08:52:08.891Z,51.325684
2022-12-01T08:53:08.862Z,51.325649
2022-12-01T08:54:08.854Z,51.325695
2022-12-01T08:55:08.867Z,51.325676
2022-12-01T08:56:08.839Z,51.325634
2022-12-01T08:57:08.796Z,51.325676
2022-12-01T08:58:08.779Z,51.325726
2022-12-01T08:59:08.768Z,51.325737
2022-12-01T09:00:08.784Z,51.325676
2022-12-01T09:01:08.727Z,51.325756
2022-12-01T09:02:08.757Z,51.325787
2022-12-01T09:03:08.728Z,51.325825
2022-12-01T09:04:09.117Z,51.325733
2022-12-01T09:05:08.691Z,51.325706
2022-12-01T09:06:08.639Z,51.325752
2022-12-01T09:07:08.630Z,51.325706
2022-12-01T09:08:08.627Z,51.325718
2022-12-01T09:09:08.601Z,51.325756
2022-12-01T09:10:08.608Z,51.325737
2022-12-01T09:11:08.557Z,51.325748
2022-12-01T09:12:08.541Z,51.325714
2022-12-01T09:13:08.522Z,51.325684
2022-12-01T09:14:08.502Z,51.325718
2022-12-01T09:15:08.525Z,51.325706
2022-12-01T09:16:08.565Z,51.325695
2022-12-01T09:17:08.475Z,51.325729
2022-12-01T09:18:08.449Z,51.325752
2022-12-01T09:19:08.418Z,51.325703
2022-12-01T09:20:08.434Z,51.325695
2022-12-01T09:21:08.386Z,51.325695
2022-12-01T09:22:08.378Z,51.325695
2022-12-01T09:23:08.355Z,51.325722
2022-12-01T09:24:08.343Z,51.325714
2022-12-01T09:25:08.354Z,51.325771
2022-12-01T09:26:13.222Z,51.325718
2022-12-01T09:27:10.283Z,51.325798
2022-12-01T09:28:08.265Z,51.325722
2022-12-01T09:29:08.251Z,51.325775
2022-12-01T09:30:08.296Z,51.325756
2022-12-01T09:31:08.276Z,51.325737
2022-12-01T09:32:08.200Z,51.325817
2022-12-01T09:33:08.203Z,51.325832
2022-12-01T09:34:08.171Z,51.325718
2022-12-01T09:35:08.316Z,51.325874
2022-12-01T09:36:08.134Z,51.325890
2022-12-01T09:37:08.130Z,51.325863
2022-12-01T09:38:08.098Z,51.325890
2022-12-01T09:39:08.087Z,51.325787
2022-12-01T09:40:08.102Z,51.325836
2022-12-01T09:41:08.048Z,51.325756
2022-12-01T09:42:09.292Z,51.325794
2022-12-01T09:43:09.014Z,51.325779
2022-12-01T09:44:08.001Z,51.325829
2022-12-01T09:45:08.012Z,51.325771
2022-12-01T09:46:07.984Z,51.325737
2022-12-01T09:47:08.011Z,51.325737
2022-12-01T09:48:07.932Z,51.325748
2022-12-01T09:49:07.918Z,51.325733
2022-12-01T09:50:07.922Z,51.325748
2022-12-01T09:51:07.869Z,51.325722
2022-12-01T09:52:07.871Z,51.325737
2022-12-01T09:53:07.839Z,51.325748
2022-12-01T09:54:07.832Z,51.325733
2022-12-01T09:55:07.839Z,51.325745
2022-12-01T09:56:12.789Z,51.325748
2022-12-01T09:57:09.769Z,51.325794
2022-12-01T09:58:07.770Z,51.325844
2022-12-01T09:59:07.733Z,51.325768
2022-12-01T10:00:07.762Z,51.325710
2022-12-01T10:01:07.768Z,51.325645
2022-12-01T10:02:07.732Z,51.325714
2022-12-01T10:03:07.670Z,51.325745
2022-12-01T10:04:07.665Z,51.325798
2022-12-01T10:05:07.713Z,51.325783
2022-12-01T10:06:26.748Z,51.325710
2022-12-01T10:07:09.612Z,51.325661
2022-12-01T10:08:07.643Z,51.325752
2022-12-01T10:09:07.571Z,51.325729
2022-12-01T10:10:07.587Z,51.325710
2022-12-01T10:11:07.536Z,51.325668
2022-12-01T10:12:07.528Z,51.325657
2022-12-01T10:13:07.510Z,51.325756
2022-12-01T10:14:07.478Z,51.325748
2022-12-01T10:15:07.503Z,51.325832
2022-12-01T10:16:07.471Z,51.325764
2022-12-01T10:17:07.433Z,51.325676
2022-12-01T10:18:07.411Z,51.325695
2022-12-01T10:19:07.404Z,51.325779
2022-12-01T10:20:07.415Z,51.325809
2022-12-01T10:21:07.354Z,51.325935
2022-12-01T10:22:08.345Z,51.325844
2022-12-01T10:23:07.323Z,51.325706
2022-12-01T10:24:07.338Z,51.325764
2022-12-01T10:25:07.326Z,51.325741
2022-12-01T10:26:07.281Z,51.325741
2022-12-01T10:27:07.262Z,51.325779
2022-12-01T10:28:07.244Z,51.325756
2022-12-01T10:29:07.224Z,51.325863
2022-12-01T10:30:07.246Z,51.325783
2022-12-01T10:31:07.225Z,51.325748
2022-12-01T10:32:07.172Z,51.325642
2022-12-01T10:33:07.151Z,51.325916
2022-12-01T10:34:07.144Z,51.326054
2022-12-01T10:35:07.149Z,51.325897
2022-12-01T10:36:07.099Z,51.325565
2022-12-01T10:37:07.077Z,51.325466
2022-12-01T10:38:07.098Z,51.325478
2022-12-01T10:39:07.057Z,51.325478
2022-12-01T10:40:07.069Z,51.325592
2022-12-01T10:41:07.028Z,51.325588
2022-12-01T10:42:07.010Z,51.325649
2022-12-01T10:43:06.985Z,51.325687
2022-12-01T10:44:06.995Z,51.325588
2022-12-01T10:45:06.949Z,51.325500
2022-12-01T10:46:07.055Z,51.325512
2022-12-01T10:47:06.917Z,51.325409
2022-12-01T10:48:06.894Z,51.325409
2022-12-01T10:49:06.878Z,51.325409
2022-12-01T10:50:06.879Z,51.325802
2022-12-01T10:51:06.891Z,51.325867
2022-12-01T10:52:06.826Z,51.325832
2022-12-01T10:53:06.833Z,51.325813
2022-12-01T10:54:06.812Z,51.325825
2022-12-01T10:55:06.774Z,51.325851
2022-12-01T10:56:06.803Z,51.325836
2022-12-01T10:57:06.741Z,51.325798
2022-12-01T10:58:09.472Z,51.325859
2022-12-01T10:59:07.715Z,51.325890
2022-12-01T11:00:06.701Z,51.325867
2022-12-01T11:01:06.806Z,51.325912
2022-12-01T11:02:06.799Z,51.325882
2022-12-01T11:03:06.832Z,51.325832
2022-12-01T11:04:06.633Z,51.325809
2022-12-01T11:05:06.628Z,51.325802
2022-12-01T11:06:06.631Z,51.325794
2022-12-01T11:07:06.569Z,51.325783
2022-12-01T11:08:06.607Z,51.325714
2022-12-01T11:09:06.553Z,51.325726
2022-12-01T11:10:06.518Z,51.325729
2022-12-01T11:11:06.548Z,51.325748
2022-12-01T11:12:06.488Z,51.325737
2022-12-01T11:13:06.487Z,51.325756
2022-12-01T11:14:06.458Z,51.325748
2022-12-01T11:15:06.438Z,51.325783
2022-12-01T11:16:06.540Z,51.325787
2022-12-01T11:17:06.416Z,51.325756
2022-12-01T11:18:06.390Z,51.325783
2022-12-01T11:19:06.376Z,51.325802
2022-12-01T11:20:06.418Z,51.325825
2022-12-01T11:21:06.373Z,51.325775
2022-12-01T11:22:06.314Z,51.325768
2022-12-01T11:23:06.297Z,51.325821
2022-12-01T11:24:06.280Z,51.325779